Charleston Heights, South Carolina
Current Conditions -  °F | °C
As of 2:56 PM on Thursday 30 Oct 2014 (Local Time) from KCHS Reporting Station
Scattered Clouds Scattered Clouds  
Wind Chill: 74°   Ceiling: Unl
Heat Index: 74°   Visibility: 10mi
Dew Point: 56°   Wind: 13mph
Humidity: 53%   Direction: 40°NE
Pressure: 29.93"   Gusts: NA
Location:  32.8713°N, 80.0388°W
Report Text: KCHS 301856Z 04011KT 10SM SCT040 23/13 A2993 RMK AO2 SLP136 T02330133
Loading
Personal Weather Stations






























Interactive Weather Map
Tropical Storm Tracking
New forecast layout! Learn more

10-Day Weather Forecast

Advertisements
Track Severe Weather on mobile